Time;durP1;ratioP1;P1;durP2;ratioP2;P2;SDS_P1;SDS_P2;PMS_P1;PMS_P2;Temp;Humidity;BMP_temperature;BMP_pressure;BME280_temperature;BME280_humidity;BME280_pressure;Samples;Min_cycle;Max_cycle;Signal;HPM_P1;HPM_P2
2021/07/19 00:02:00;;;;;;;16.00;11.23;;;;;;;20.05;88.59;94262.47;5109132;28;20047;-65
2021/07/19 00:04:32;;;;;;;13.63;11.77;;;;;;;20.12;88.31;94267.34;5110085;27;20092;-66
2021/07/19 00:06:59;;;;;;;17.05;11.30;;;;;;;20.13;87.93;94273.38;5108462;27;20043;-64
2021/07/19 00:09:26;;;;;;;13.65;11.60;;;;;;;20.10;87.64;94274.78;5091949;28;20070;-65
2021/07/19 00:11:53;;;;;;;18.00;11.75;;;;;;;20.11;87.60;94278.22;5109393;27;20051;-65
2021/07/19 00:14:20;;;;;;;13.52;11.75;;;;;;;20.08;87.78;94270.88;5109158;27;20397;-65
2021/07/19 00:16:47;;;;;;;16.00;11.55;;;;;;;20.04;88.17;94276.78;5092755;28;20031;-65
2021/07/19 00:19:14;;;;;;;15.52;12.40;;;;;;;20.07;88.90;94269.34;5108818;27;20040;-65
2021/07/19 00:21:40;;;;;;;17.50;12.07;;;;;;;20.08;88.27;94269.03;5107547;28;20463;-65
2021/07/19 00:24:07;;;;;;;14.18;11.75;;;;;;;20.02;87.57;94278.97;5090436;28;20051;-66
2021/07/19 00:26:34;;;;;;;17.25;12.23;;;;;;;19.99;87.10;94278.78;5108742;27;20112;-65
2021/07/19 00:29:01;;;;;;;16.90;12.43;;;;;;;19.93;87.09;94275.47;5110353;27;20035;-65
2021/07/19 00:31:32;;;;;;;13.05;11.55;;;;;;;19.96;87.40;94290.72;5108600;28;20039;-66
2021/07/19 00:34:00;;;;;;;16.55;10.82;;;;;;;19.95;87.67;94281.25;5111042;27;20394;-65
2021/07/19 00:36:27;;;;;;;12.85;11.50;;;;;;;19.93;87.42;94288.69;5106376;27;20699;-64
2021/07/19 00:38:57;;;;;;;18.02;12.65;;;;;;;19.89;87.28;94285.09;5109368;27;20045;-65
2021/07/19 00:41:24;;;;;;;18.60;13.07;;;;;;;19.89;87.74;94285.09;5111055;27;20039;-65
2021/07/19 00:43:51;;;;;;;14.60;12.30;;;;;;;19.89;87.54;94290.38;5092477;28;20146;-64
2021/07/19 00:46:18;;;;;;;16.88;11.85;;;;;;;19.87;86.90;94281.97;5111018;27;20042;-66
2021/07/19 00:48:46;;;;;;;17.33;12.55;;;;;;;19.84;86.23;94282.56;5078916;28;20453;-65
2021/07/19 00:51:13;;;;;;;14.02;10.75;;;;;;;19.77;86.16;94276.94;5071802;28;20586;-65
2021/07/19 00:53:39;;;;;;;16.00;12.18;;;;;;;19.76;86.79;94285.97;5068695;28;20048;-65
2021/07/19 00:56:10;;;;;;;14.82;11.88;;;;;;;19.72;86.52;94277.06;5065766;28;20539;-64
2021/07/19 00:58:41;;;;;;;16.35;12.35;;;;;;;19.73;86.97;94275.97;5069887;28;20536;-65
2021/07/19 01:01:11;;;;;;;13.93;11.82;;;;;;;19.30;87.81;94242.88;5071390;28;20532;-65
2021/07/19 01:03:40;;;;;;;20.20;12.57;;;;;;;19.46;87.77;94256.53;5071636;28;20064;-65
2021/07/19 01:06:10;;;;;;;16.65;12.77;;;;;;;19.52;87.74;94265.91;5072851;28;20036;-66
2021/07/19 01:08:38;;;;;;;13.52;12.15;;;;;;;19.54;88.23;94269.00;5074318;28;20048;-65
2021/07/19 01:11:05;;;;;;;14.52;11.55;;;;;;;19.53;88.07;94272.72;5075808;28;20055;-65
2021/07/19 01:13:33;;;;;;;23.02;12.82;;;;;;;19.54;88.06;94269.00;5070111;28;20055;-65
2021/07/19 01:16:01;;;;;;;16.80;11.02;;;;;;;19.55;88.22;94265.28;5071320;28;20048;-65
2021/07/19 01:18:28;;;;;;;14.65;11.60;;;;;;;19.55;88.56;94275.84;5067268;28;20494;-65
2021/07/19 01:21:04;;;;;;;19.52;11.82;;;;;;;19.54;88.26;94279.56;5068610;28;20032;-65
2021/07/19 01:23:59;;;;;;;19.55;11.75;;;;;;;19.52;88.71;94279.09;5069532;28;20036;-65
2021/07/19 01:26:36;;;;;;;18.52;14.05;;;;;;;19.50;88.19;94273.34;5069593;28;20044;-65
2021/07/19 01:29:06;;;;;;;20.08;14.43;;;;;;;19.50;88.17;94278.63;5063099;28;20048;-65
2021/07/19 01:31:42;;;;;;;20.75;14.20;;;;;;;19.47;87.68;94276.56;5073738;28;20051;-65
2021/07/19 01:34:15;;;;;;;19.27;12.15;;;;;;;19.45;87.48;94284.03;5068361;28;20051;-65
2021/07/19 01:36:55;;;;;;;15.60;13.50;;;;;;;19.41;87.15;94281.19;5068812;28;20425;-64
2021/07/19 01:39:37;;;;;;;13.98;12.27;;;;;;;19.41;86.48;94275.91;5065604;28;20127;-64
2021/07/19 01:42:07;;;;;;;17.45;11.73;;;;;;;19.43;85.81;94284.31;5070085;28;20568;-66
2021/07/19 01:44:36;;;;;;;13.13;11.75;;;;;;;19.44;85.24;94285.09;5068286;28;20126;-66
2021/07/19 01:47:08;;;;;;;15.45;11.73;;;;;;;19.40;85.14;94273.56;5069222;28;20123;-65
2021/07/19 01:49:40;;;;;;;15.82;11.65;;;;;;;19.41;85.44;94288.31;5100048;27;20428;-65
2021/07/19 01:52:09;;;;;;;13.63;11.68;;;;;;;19.36;85.27;94291.09;5091048;28;20044;-65
2021/07/19 01:54:37;;;;;;;14.90;11.35;;;;;;;19.26;85.32;94290.22;5110184;27;20416;-65
2021/07/19 01:57:07;;;;;;;17.42;11.88;;;;;;;19.20;85.24;94290.66;5107713;27;20067;-65
2021/07/19 01:59:44;;;;;;;18.45;13.50;;;;;;;19.05;86.88;94289.13;5089963;27;20066;-65
2021/07/19 02:02:29;;;;;;;18.33;11.50;;;;;;;18.91;86.93;94274.09;5109539;27;20553;-65
2021/07/19 02:05:13;;;;;;;15.38;11.25;;;;;;;18.96;87.70;94285.63;5091157;28;20139;-65
2021/07/19 02:07:52;;;;;;;15.65;11.38;;;;;;;18.97;87.12;94282.69;5089611;28;20054;-65
2021/07/19 02:10:21;;;;;;;19.43;11.70;;;;;;;18.93;87.30;94280.97;5074582;27;20048;-66
2021/07/19 02:12:56;;;;;;;15.02;11.88;;;;;;;18.93;87.12;94286.22;5089300;28;20100;-65
2021/07/19 02:15:29;;;;;;;18.55;11.35;;;;;;;19.01;86.50;94283.66;5088424;28;20039;-65
2021/07/19 02:18:00;;;;;;;16.73;11.18;;;;;;;18.91;86.38;94287.28;5089456;28;20071;-65
2021/07/19 02:20:28;;;;;;;20.05;11.30;;;;;;;18.88;86.51;94284.47;5108941;27;20496;-65
2021/07/19 02:23:01;;;;;;;18.80;11.57;;;;;;;18.94;85.76;94282.50;5088668;27;20504;-66
2021/07/19 02:25:48;;;;;;;17.65;11.00;;;;;;;18.87;85.73;94277.63;5106552;28;20050;-65
2021/07/19 02:28:19;;;;;;;27.55;13.20;;;;;;;18.84;85.83;94284.28;5091110;27;20047;-65
2021/07/19 02:30:47;;;;;;;16.10;11.48;;;;;;;18.88;85.48;94285.25;5090921;28;20740;-65
2021/07/19 02:33:20;;;;;;;17.55;12.38;;;;;;;18.86;85.76;94292.69;5107643;27;20101;-65
2021/07/19 02:35:51;;;;;;;14.52;11.18;;;;;;;18.89;85.90;94286.81;5093961;28;20047;-65
2021/07/19 02:38:23;;;;;;;16.50;12.43;;;;;;;18.91;85.88;94294.44;5088288;27;20048;-65
2021/07/19 02:41:05;;;;;;;19.63;12.32;;;;;;;18.85;86.12;94291.13;5089347;28;20050;-65
2021/07/19 02:43:34;;;;;;;16.55;13.05;;;;;;;18.71;87.61;94295.63;5105724;28;20046;-65
2021/07/19 02:46:02;;;;;;;15.95;12.00;;;;;;;18.61;87.94;94298.44;5087528;28;20043;-66
2021/07/19 02:48:36;;;;;;;14.43;10.95;;;;;;;18.59;87.53;94287.41;5087945;28;21741;-65
2021/07/19 02:51:05;;;;;;;17.63;11.30;;;;;;;18.69;86.22;94282.72;5090364;28;20046;-65
2021/07/19 02:53:34;;;;;;;18.88;12.30;;;;;;;18.79;85.63;94297.53;5105666;28;20036;-66
2021/07/19 02:56:03;;;;;;;16.17;11.55;;;;;;;18.79;85.57;94297.53;5087749;28;20072;-66
2021/07/19 02:58:31;;;;;;;19.42;10.55;;;;;;;18.81;85.08;94300.69;5087803;28;20054;-66
2021/07/19 03:01:03;;;;;;;14.95;10.88;;;;;;;18.82;84.66;94302.25;5087209;28;20779;-66
2021/07/19 03:03:35;;;;;;;14.20;11.90;;;;;;;18.83;84.54;94306.44;5088738;28;20686;-65
2021/07/19 03:06:09;;;;;;;19.10;13.10;;;;;;;18.58;85.54;94296.38;5088209;28;20047;-66
2021/07/19 03:08:42;;;;;;;15.75;12.63;;;;;;;18.53;85.88;94298.06;5090217;28;20394;-66
2021/07/19 03:11:45;;;;;;;20.55;12.00;;;;;;;18.60;86.14;94310.06;5106354;28;20683;-66
2021/07/19 03:14:21;;;;;;;19.10;12.88;;;;;;;18.57;86.51;94316.72;5105180;28;20039;-66
2021/07/19 03:16:52;;;;;;;26.17;13.48;;;;;;;18.59;86.37;94313.78;5087856;28;20044;-66
2021/07/19 03:19:20;;;;;;;23.88;13.75;;;;;;;18.56;87.32;94311.72;5087902;28;20505;-66
2021/07/19 03:21:53;;;;;;;23.48;12.23;;;;;;;18.56;87.16;94309.09;5088076;28;20046;-65
2021/07/19 03:24:31;;;;;;;25.17;12.20;;;;;;;18.62;87.20;94313.19;5074151;28;20048;-65
2021/07/19 03:26:58;;;;;;;26.17;12.73;;;;;;;18.68;86.85;94317.28;5108660;27;20027;-65
2021/07/19 03:29:28;;;;;;;19.73;12.75;;;;;;;18.72;87.00;94316.41;5091955;28;20489;-66
2021/07/19 03:32:18;;;;;;;24.77;13.75;;;;;;;18.81;86.16;94316.53;5111473;27;20035;-66
2021/07/19 03:34:48;;;;;;;17.75;13.13;;;;;;;18.79;85.89;94308.09;5110310;27;20493;-66
2021/07/19 03:37:17;;;;;;;23.17;13.45;;;;;;;18.80;85.78;94309.66;5094063;27;20467;-66
2021/07/19 03:39:45;;;;;;;30.50;13.00;;;;;;;18.87;85.47;94320.63;5111250;27;20045;-65
2021/07/19 03:42:20;;;;;;;20.58;13.52;;;;;;;18.88;85.58;94322.19;5093886;27;20048;-65
2021/07/19 03:44:52;;;;;;;27.80;13.55;;;;;;;18.87;85.60;94331.19;5111149;27;20043;-65
2021/07/19 03:47:22;;;;;;;28.65;14.02;;;;;;;18.90;86.05;94335.84;5093894;27;20039;-65
2021/07/19 03:49:54;;;;;;;27.48;13.57;;;;;;;18.87;86.16;94325.91;5112510;27;20057;-65
2021/07/19 03:52:23;;;;;;;27.65;14.27;;;;;;;18.89;86.35;94334.31;5111575;27;20582;-65
2021/07/19 03:54:51;;;;;;;15.13;13.18;;;;;;;18.78;86.79;94332.94;5093162;28;20067;-65
2021/07/19 03:57:19;;;;;;;21.67;14.02;;;;;;;18.75;87.11;94338.78;5092052;28;20047;-65
2021/07/19 03:59:47;;;;;;;18.42;14.43;;;;;;;18.66;87.78;94340.56;5092230;28;20043;-66
2021/07/19 04:02:24;;;;;;;28.48;15.02;;;;;;;18.64;88.57;94347.97;5090843;28;20082;-65
2021/07/19 04:05:07;;;;;;;19.17;15.23;;;;;;;18.53;88.99;94332.34;5110721;27;20059;-65
2021/07/19 04:07:47;;;;;;;17.98;15.30;;;;;;;18.46;89.98;94345.13;5092263;27;20035;-65
2021/07/19 04:10:19;;;;;;;22.52;15.60;;;;;;;18.40;90.19;94348.16;5093358;28;20058;-66
2021/07/19 04:12:50;;;;;;;19.48;14.38;;;;;;;18.41;90.93;94347.84;5111571;27;20109;-66
2021/07/19 04:15:22;;;;;;;;;;;;;;;18.43;91.15;94353.63;5092850;28;20047;-65
2021/07/19 04:17:51;;;;;;;20.60;14.25;;;;;;;18.41;91.64;94358.41;5093249;27;19925;-66
2021/07/19 04:20:27;;;;;;;24.42;14.38;;;;;;;18.41;92.72;94355.75;5090456;28;20141;-65
2021/07/19 04:22:55;;;;;;;19.17;13.52;;;;;;;18.29;93.44;94358.09;5090850;27;20175;-66
2021/07/19 04:25:22;;;;;;;21.58;13.60;;;;;;;18.39;93.57;94357.13;5110306;27;20052;-65
2021/07/19 04:27:49;;;;;;;18.27;13.30;;;;;;;18.46;93.30;94363.59;5108819;27;20459;-64
2021/07/19 04:30:15;;;;;;;16.67;12.43;;;;;;;18.58;92.26;94360.44;5112486;27;20043;-64
2021/07/19 04:32:52;;;;;;;31.13;13.82;;;;;;;18.60;92.28;94347.78;5092821;28;20062;-64
2021/07/19 04:35:21;;;;;;;16.35;12.38;;;;;;;18.79;91.18;94358.22;5090633;27;20039;-65
2021/07/19 04:37:52;;;;;;;28.27;14.15;;;;;;;18.93;91.36;94358.25;5091160;28;20039;-64
2021/07/19 04:40:25;;;;;;;20.50;11.93;;;;;;;19.10;90.71;94355.00;5088938;28;20082;-65
2021/07/19 04:42:56;;;;;;;26.92;12.80;;;;;;;19.19;89.88;94357.72;5108675;27;20566;-64
2021/07/19 04:45:23;;;;;;;19.02;13.43;;;;;;;19.31;89.58;94365.13;5108731;27;20104;-64
2021/07/19 04:47:50;;;;;;;23.80;14.73;;;;;;;19.32;89.44;94345.56;5106897;27;20031;-64
2021/07/19 04:50:18;;;;;;;24.98;14.38;;;;;;;19.48;89.52;94365.28;5110126;27;20134;-65
2021/07/19 04:53:04;;;;;;;18.55;13.60;;;;;;;19.55;88.88;94359.59;5091569;28;20051;-64
2021/07/19 04:55:32;;;;;;;21.50;13.25;;;;;;;19.64;88.40;94369.16;5106562;27;22030;-64
2021/07/19 04:58:00;;;;;;;23.08;13.40;;;;;;;19.72;87.74;94356.31;5091430;28;20062;-64
2021/07/19 05:00:29;;;;;;;20.45;14.30;;;;;;;19.88;87.74;94362.81;5106533;27;20055;-65
2021/07/19 05:02:58;;;;;;;26.08;13.25;;;;;;;19.98;88.07;94367.84;5104773;27;20051;-64
2021/07/19 05:05:26;;;;;;;19.70;12.82;;;;;;;20.13;87.18;94368.56;5109179;27;20036;-65
2021/07/19 05:07:55;;;;;;;25.58;13.38;;;;;;;20.22;86.81;94366.75;5109967;27;20049;-64
2021/07/19 05:10:27;;;;;;;19.48;13.32;;;;;;;20.34;86.67;94369.63;5108353;27;20046;-64
2021/07/19 05:12:55;;;;;;;15.93;12.98;;;;;;;20.39;86.75;94377.41;5108547;27;20549;-65
2021/07/19 05:15:23;;;;;;;21.40;13.35;;;;;;;20.49;86.29;94370.31;5109964;27;20042;-65
2021/07/19 05:17:49;;;;;;;20.88;12.50;;;;;;;20.61;85.63;94373.19;5107201;28;20034;-65
2021/07/19 05:20:19;;;;;;;22.38;12.45;;;;;;;20.70;83.83;94381.94;5110212;27;20050;-64
2021/07/19 05:22:48;;;;;;;41.53;15.48;;;;;;;20.78;84.92;94377.78;5092302;27;20059;-64
2021/07/19 05:25:30;;;;;;;32.95;14.63;;;;;;;20.85;86.39;94372.03;5105837;28;20134;-65
2021/07/19 05:28:13;;;;;;;31.17;14.75;;;;;;;21.02;84.38;94372.09;5109578;27;20409;-64
2021/07/19 05:30:47;;;;;;;31.58;13.18;;;;;;;21.04;83.40;94369.91;5106113;27;20108;-65
2021/07/19 05:33:15;;;;;;;24.25;13.15;;;;;;;21.18;82.75;94370.56;5106774;27;20051;-64
2021/07/19 05:35:42;;;;;;;20.05;11.95;;;;;;;21.29;81.24;94370.28;5107672;27;20050;-64
2021/07/19 05:38:09;;;;;;;28.33;11.90;;;;;;;21.39;80.30;94377.91;5107696;27;20039;-65
2021/07/19 05:40:39;;;;;;;34.33;12.75;;;;;;;21.50;80.28;94373.13;5087599;28;20040;-64
2021/07/19 05:43:06;;;;;;;31.45;11.52;;;;;;;21.65;79.45;94366.59;5107514;27;20467;-64
2021/07/19 05:51:56;;;;;;;23.45;12.63;;;;;;;21.73;79.41;94379.84;5113261;27;20652;-66
2021/07/19 05:54:22;;;;;;;25.75;12.77;;;;;;;21.86;79.50;94372.03;5121427;27;20572;-65
2021/07/19 05:56:49;;;;;;;22.48;11.40;;;;;;;22.03;79.57;94372.00;5123153;27;20043;-63
2021/07/19 05:59:16;;;;;;;22.13;12.23;;;;;;;22.16;77.63;94378.22;5123557;27;20031;-63
2021/07/19 06:01:43;;;;;;;14.75;11.93;;;;;;;22.32;78.87;94384.63;5122850;27;20061;-63
2021/07/19 06:04:10;;;;;;;16.77;11.98;;;;;;;22.52;76.41;94377.06;5122765;27;20043;-63
2021/07/19 06:06:37;;;;;;;20.05;11.02;;;;;;;22.69;75.71;94382.34;5122596;27;20057;-63
2021/07/19 06:09:04;;;;;;;13.23;10.90;;;;;;;22.85;73.87;94389.75;5122738;27;20039;-63
2021/07/19 06:11:31;;;;;;;13.98;10.60;;;;;;;22.97;74.77;94387.19;5124135;27;20032;-63
2021/07/19 06:13:57;;;;;;;13.35;11.10;;;;;;;23.09;74.86;94379.34;5126700;27;20035;-63
2021/07/19 06:16:24;;;;;;;20.60;11.90;;;;;;;23.23;74.25;94378.38;5130568;27;20050;-64
2021/07/19 06:18:51;;;;;;;16.38;12.80;;;;;;;23.43;73.76;94387.47;5122087;27;20074;-63
2021/07/19 06:21:18;;;;;;;14.55;11.50;;;;;;;23.58;73.15;94388.75;5105348;27;20507;-64
2021/07/19 06:23:45;;;;;;;17.77;11.20;;;;;;;23.55;72.50;94387.53;5125253;27;20044;-62
2021/07/19 06:26:12;;;;;;;17.30;12.35;;;;;;;23.59;72.22;94390.31;5122859;27;20040;-63
2021/07/19 06:28:39;;;;;;;23.05;10.75;;;;;;;23.71;71.41;94386.94;5124115;27;20039;-63
2021/07/19 06:31:06;;;;;;;15.35;12.23;;;;;;;23.82;70.34;94391.56;5125726;27;20039;-63
2021/07/19 06:33:33;;;;;;;16.67;10.93;;;;;;;23.97;69.83;94394.75;5122069;27;20043;-63
2021/07/19 06:36:00;;;;;;;17.70;9.85;;;;;;;24.00;69.94;94394.06;5126074;27;20560;-64
2021/07/19 06:38:27;;;;;;;17.17;11.05;;;;;;;23.97;68.23;94394.75;5124767;27;20428;-64
2021/07/19 06:40:54;;;;;;;17.20;11.45;;;;;;;24.03;69.69;94401.41;5132328;27;20118;-63
2021/07/19 06:43:21;;;;;;;21.77;11.90;;;;;;;24.06;68.70;94392.78;5126570;27;20054;-64
2021/07/19 06:45:48;;;;;;;16.42;10.20;;;;;;;24.13;66.98;94393.03;5124559;27;20276;-63
2021/07/19 06:48:15;;;;;;;17.60;10.98;;;;;;;23.98;67.35;94393.63;5126027;27;20043;-63
2021/07/19 06:50:43;;;;;;;21.13;10.88;;;;;;;23.96;67.12;94377.22;5123794;27;20043;-64
2021/07/19 06:53:09;;;;;;;11.10;9.68;;;;;;;24.20;66.72;94385.28;5107576;28;20040;-63
2021/07/19 06:55:36;;;;;;;17.08;10.68;;;;;;;24.34;68.75;94376.22;5129410;27;20039;-64
2021/07/19 06:58:03;;;;;;;19.38;10.52;;;;;;;24.41;66.37;94376.47;5133043;27;20038;-63
2021/07/19 07:00:30;;;;;;;20.08;9.98;;;;;;;24.48;65.40;94376.69;5108421;27;20043;-64
2021/07/19 07:02:57;;;;;;;18.35;9.43;;;;;;;24.57;65.64;94380.06;5111101;27;20053;-64
2021/07/19 07:05:24;;;;;;;14.88;9.38;;;;;;;24.68;64.91;94369.00;5115824;27;20097;-64
2021/07/19 07:07:51;;;;;;;22.23;10.02;;;;;;;24.89;64.65;94379.56;5109711;27;20813;-64
2021/07/19 07:10:21;;;;;;;15.95;9.85;;;;;;;24.87;63.60;94368.47;5111091;27;20092;-64
2021/07/19 07:12:48;;;;;;;19.73;9.38;;;;;;;24.99;62.77;94374.56;5110549;27;20427;-64
2021/07/19 07:15:15;;;;;;;11.70;8.82;;;;;;;25.00;61.23;94370.78;5111279;27;20055;-64
2021/07/19 07:17:42;;;;;;;14.10;10.10;;;;;;;25.18;63.33;94366.00;5115541;27;20061;-64
2021/07/19 07:20:10;;;;;;;18.90;9.95;;;;;;;25.36;61.47;94371.88;5112839;27;20047;-64
2021/07/19 07:22:37;;;;;;;10.98;8.77;;;;;;;25.57;62.39;94365.63;5113056;27;20039;-64
2021/07/19 07:25:05;;;;;;;12.25;9.05;;;;;;;25.71;61.41;94376.72;5116523;27;20123;-64
2021/07/19 07:27:34;;;;;;;12.88;9.63;;;;;;;25.72;59.68;94372.91;5117046;27;20440;-64
2021/07/19 07:30:07;;;;;;;12.63;9.65;;;;;;;25.56;59.48;94348.06;5111391;27;20039;-65
2021/07/19 07:32:35;;;;;;;31.75;9.70;;;;;;;25.91;61.90;94363.50;5110398;27;20035;-64
2021/07/19 07:35:03;;;;;;;16.23;9.07;;;;;;;25.90;60.82;94368.06;5111873;27;20046;-64
2021/07/19 07:37:31;;;;;;;14.57;8.18;;;;;;;25.87;61.06;94362.63;5107653;27;20127;-64
2021/07/19 07:39:59;;;;;;;14.20;10.07;;;;;;;26.02;59.40;94359.28;5111687;27;20601;-64
2021/07/19 07:42:28;;;;;;;11.75;7.70;;;;;;;26.11;58.49;94361.81;5111072;27;20172;-64
2021/07/19 07:44:56;;;;;;;12.63;9.15;;;;;;;26.17;59.11;94354.31;5107894;27;20512;-64
2021/07/19 07:47:23;;;;;;;17.92;9.40;;;;;;;26.34;58.46;94364.66;5109886;27;20043;-64
2021/07/19 07:49:50;;;;;;;11.20;7.97;;;;;;;26.62;59.14;94355.88;5110090;27;20052;-64
2021/07/19 07:52:17;;;;;;;16.42;9.00;;;;;;;26.65;57.03;94352.47;5106938;28;20036;-65
2021/07/19 07:54:44;;;;;;;18.85;8.57;;;;;;;26.67;58.49;94355.59;5108054;28;20041;-64
2021/07/19 07:57:11;;;;;;;17.52;7.60;;;;;;;26.74;55.25;94350.44;5106707;28;20096;-64
2021/07/19 07:59:38;;;;;;;14.60;8.13;;;;;;;26.86;56.79;94353.00;5106633;28;20042;-65
2021/07/19 08:02:05;;;;;;;16.25;8.60;;;;;;;26.99;55.73;94353.69;5108138;27;20043;-64
2021/07/19 08:04:33;;;;;;;8.95;7.53;;;;;;;27.17;56.11;94350.63;5107641;27;20114;-64
2021/07/19 08:07:01;;;;;;;17.42;8.85;;;;;;;27.41;56.38;94349.66;5107290;28;20122;-65
2021/07/19 08:09:29;;;;;;;11.10;7.18;;;;;;;27.48;54.36;94344.47;5107763;28;20040;-65
2021/07/19 08:11:57;;;;;;;19.00;7.47;;;;;;;27.72;53.53;94337.28;5107837;28;20497;-65
2021/07/19 08:14:25;;;;;;;10.48;8.02;;;;;;;28.02;52.23;94351.69;5106545;28;20055;-64
2021/07/19 08:16:52;;;;;;;9.63;6.82;;;;;;;28.22;50.71;94354.31;5107673;28;20040;-64
2021/07/19 08:19:20;;;;;;;14.02;7.13;;;;;;;28.34;52.19;94340.78;5107623;28;20382;-64
2021/07/19 08:21:46;;;;;;;17.35;8.10;;;;;;;28.06;50.19;94350.97;5107454;28;20050;-64
2021/07/19 08:24:13;;;;;;;13.98;7.97;;;;;;;27.75;51.59;94348.06;5107814;27;20066;-65
2021/07/19 08:26:40;;;;;;;12.90;7.88;;;;;;;27.65;52.63;94353.97;5107517;28;20043;-65
2021/07/19 08:29:07;;;;;;;11.85;7.25;;;;;;;27.69;51.81;94349.47;5107066;27;20064;-64
2021/07/19 08:31:35;;;;;;;14.23;7.10;;;;;;;27.81;52.80;94345.88;5107174;28;20039;-65
2021/07/19 08:34:04;;;;;;;12.75;7.20;;;;;;;27.82;52.53;94342.06;5107020;28;20536;-65
2021/07/19 08:36:31;;;;;;;23.23;8.20;;;;;;;27.92;53.90;94346.88;5107117;28;20042;-64
2021/07/19 08:38:58;;;;;;;12.60;7.50;;;;;;;28.09;51.43;94339.53;5107214;27;20043;-64
2021/07/19 08:41:25;;;;;;;14.07;7.72;;;;;;;28.02;51.81;94346.31;5106963;28;20039;-65
2021/07/19 08:43:52;;;;;;;14.85;8.02;;;;;;;28.39;52.44;94343.13;5106801;27;20138;-64
2021/07/19 08:46:19;;;;;;;12.32;6.85;;;;;;;28.47;50.50;94340.59;5108840;27;20440;-64
2021/07/19 08:48:52;;;;;;;13.18;8.50;;;;;;;28.89;50.70;94345.13;5105957;28;20046;-64
2021/07/19 08:51:20;;;;;;;10.43;7.95;;;;;;;28.76;52.62;94350.69;5104541;28;20511;-65
2021/07/19 08:53:47;;;;;;;18.60;8.63;;;;;;;28.66;51.61;94353.94;5106331;27;20051;-64
2021/07/19 08:56:14;;;;;;;10.43;7.57;;;;;;;28.47;52.30;94343.25;5106920;28;20040;-65
2021/07/19 08:58:43;;;;;;;15.45;8.13;;;;;;;28.73;51.59;94346.03;5106679;28;20063;-64
2021/07/19 09:01:12;;;;;;;20.08;7.18;;;;;;;29.14;49.90;94343.63;5105423;28;20042;-64
2021/07/19 09:03:40;;;;;;;13.25;6.65;;;;;;;29.55;48.58;94340.34;5105343;28;20097;-64
2021/07/19 09:06:11;;;;;;;10.35;6.63;;;;;;;29.47;45.51;94350.19;5106427;28;20044;-64
2021/07/19 09:08:46;;;;;;;12.93;6.68;;;;;;;29.53;46.04;94338.03;5105616;28;20047;-64
2021/07/19 09:11:13;;;;;;;11.60;7.28;;;;;;;29.80;46.91;94329.94;5105330;28;20047;-64
2021/07/19 09:13:55;;;;;;;16.15;7.13;;;;;;;30.05;44.65;94345.53;5106138;28;20050;-64
2021/07/19 09:16:22;;;;;;;16.17;6.87;;;;;;;30.14;43.60;94348.69;5106193;28;20100;-65
2021/07/19 09:19:07;;;;;;;16.83;6.57;;;;;;;30.41;45.96;94351.28;5088241;28;20083;-64
2021/07/19 09:21:36;;;;;;;11.57;6.70;;;;;;;30.16;44.19;94335.69;5106258;28;20111;-64
2021/07/19 09:24:08;;;;;;;9.98;7.05;;;;;;;30.56;44.24;94333.38;5106349;28;20044;-64
2021/07/19 09:26:36;;;;;;;10.45;7.05;;;;;;;30.45;42.50;94325.22;5107752;27;20413;-64
2021/07/19 09:29:09;;;;;;;10.40;7.00;;;;;;;30.54;43.80;94317.66;5106404;28;20049;-64
2021/07/19 09:31:52;;;;;;;10.23;6.32;;;;;;;30.58;44.46;94323.06;5105435;27;20035;-65
2021/07/19 09:34:26;;;;;;;13.90;7.35;;;;;;;30.75;43.71;94321.66;5087830;28;20047;-64
2021/07/19 09:37:06;;;;;;;7.68;6.82;;;;;;;31.12;42.28;94318.09;5106525;28;20174;-66
2021/07/19 09:39:40;;;;;;;15.32;6.95;;;;;;;31.19;42.80;94321.59;5106321;28;20067;-64
2021/07/19 09:42:13;;;;;;;13.90;6.65;;;;;;;31.52;41.99;94324.47;5104652;28;20412;-64
2021/07/19 09:44:41;;;;;;;16.70;6.90;;;;;;;31.58;42.07;94320.28;5106165;28;20428;-65
2021/07/19 09:47:13;;;;;;;10.63;7.43;;;;;;;31.59;41.87;94333.34;5104968;28;21358;-64
2021/07/19 09:49:40;;;;;;;12.73;7.35;;;;;;;31.01;43.55;94324.16;5106195;28;20046;-65
2021/07/19 09:52:10;;;;;;;13.52;6.63;;;;;;;31.37;39.55;94313.63;5103885;28;20039;-64
2021/07/19 09:54:43;;;;;;;15.20;7.15;;;;;;;31.41;40.92;94319.78;5105212;28;20051;-64
2021/07/19 09:57:13;;;;;;;20.10;7.22;;;;;;;31.14;40.72;94321.19;5089244;28;20079;-64
2021/07/19 09:59:54;;;;;;;11.45;6.68;;;;;;;31.35;41.40;94324.00;5104695;28;20582;-65
2021/07/19 10:02:30;;;;;;;11.75;6.47;;;;;;;30.87;40.60;94324.81;5105892;28;20822;-65
2021/07/19 10:04:57;;;;;;;15.32;7.60;;;;;;;30.39;41.91;94313.28;5105411;28;20505;-64
2021/07/19 10:07:24;;;;;;;13.73;7.65;;;;;;;30.13;44.62;94330.28;5106051;28;20057;-64
2021/07/19 10:09:56;;;;;;;15.40;7.53;;;;;;;30.77;44.99;94324.72;5107252;28;20043;-64
2021/07/19 10:12:24;;;;;;;18.42;7.07;;;;;;;31.21;41.47;94326.59;5105731;28;20436;-64
2021/07/19 10:14:52;;;;;;;12.77;6.28;;;;;;;31.70;39.47;94314.56;5106034;28;20055;-65
2021/07/19 10:17:20;;;;;;;14.70;6.32;;;;;;;31.53;38.48;94326.81;5105533;28;20094;-64
2021/07/19 10:19:47;;;;;;;11.40;6.35;;;;;;;31.36;39.96;94322.84;5104585;28;20119;-64
2021/07/19 10:22:14;;;;;;;20.15;6.68;;;;;;;31.38;39.94;94320.53;5106699;28;20047;-64
2021/07/19 10:24:43;;;;;;;10.65;7.07;;;;;;;32.08;38.97;94328.56;5105489;28;20109;-64
2021/07/19 10:27:29;;;;;;;15.82;7.45;;;;;;;32.03;37.78;94318.13;5105811;28;20052;-65
2021/07/19 10:29:58;;;;;;;11.77;6.80;;;;;;;32.17;39.26;94310.09;5105433;28;20040;-65
2021/07/19 10:32:25;;;;;;;15.80;6.57;;;;;;;32.00;39.03;94316.19;5097164;28;20532;-65
2021/07/19 10:34:54;;;;;;;11.52;7.20;;;;;;;31.79;37.97;94312.28;5105391;28;21479;-64
2021/07/19 10:37:30;;;;;;;9.50;7.70;;;;;;;31.91;38.57;94315.78;5108601;27;20043;-64
2021/07/19 10:39:59;;;;;;;12.48;7.85;;;;;;;32.02;38.58;94303.13;5090678;28;20524;-64
2021/07/19 10:42:37;;;;;;;11.32;8.32;;;;;;;32.19;39.09;94302.41;5093461;28;20048;-64
2021/07/19 10:45:12;;;;;;;16.42;7.40;;;;;;;32.45;39.39;94303.22;5111211;27;20119;-64
2021/07/19 10:47:54;;;;;;;13.50;7.80;;;;;;;32.80;38.26;94290.91;5111316;27;20054;-64
2021/07/19 10:50:26;;;;;;;13.07;7.35;;;;;;;32.82;38.13;94287.84;5111729;27;20093;-64
2021/07/19 10:52:59;;;;;;;12.32;7.97;;;;;;;32.50;39.25;94289.38;5106708;28;20040;-65
2021/07/19 10:55:33;;;;;;;13.52;7.55;;;;;;;32.49;39.40;94282.44;5106657;28;20048;-64
2021/07/19 10:58:05;;;;;;;16.77;8.40;;;;;;;32.83;36.78;94286.69;5108651;28;20044;-64
2021/07/19 11:00:43;;;;;;;11.52;7.85;;;;;;;33.14;37.19;94282.41;5108838;27;20039;-64
2021/07/19 11:03:15;;;;;;;21.90;8.95;;;;;;;33.15;36.22;94275.84;5107861;27;20456;-63
2021/07/19 11:05:49;;;;;;;15.05;9.15;;;;;;;33.08;38.22;94273.13;5107655;27;20054;-64
2021/07/19 11:08:24;;;;;;;20.42;8.93;;;;;;;33.57;37.96;94266.06;5103557;28;20043;-64
2021/07/19 11:10:53;;;;;;;17.48;8.25;;;;;;;33.57;35.95;94260.69;5105999;27;20947;-64
2021/07/19 11:13:38;;;;;;;11.63;7.47;;;;;;;33.63;35.96;94259.09;5104933;27;20060;-64
2021/07/19 11:16:15;;;;;;;13.27;7.68;;;;;;;33.57;36.91;94266.06;5104599;28;20074;-63
2021/07/19 11:19:02;;;;;;;15.10;8.00;;;;;;;33.23;37.27;94257.72;5106664;27;20065;-64
2021/07/19 11:21:32;;;;;;;18.60;7.93;;;;;;;33.27;35.59;94261.19;5106065;28;20054;-64
2021/07/19 11:24:19;;;;;;;11.95;8.18;;;;;;;33.22;37.01;94256.94;5103651;27;20052;-64
2021/07/19 11:26:55;;;;;;;15.30;8.15;;;;;;;33.03;37.17;94246.59;5108786;27;20047;-64
2021/07/19 11:29:37;;;;;;;17.30;7.53;;;;;;;33.14;36.77;94250.03;5106853;27;20048;-64
2021/07/19 11:32:04;;;;;;;14.43;8.15;;;;;;;33.75;37.26;94254.47;5108199;27;20443;-64
2021/07/19 11:34:34;;;;;;;12.90;8.73;;;;;;;33.34;36.87;94245.72;5107050;27;20081;-64
2021/07/19 11:37:02;;;;;;;10.18;8.60;;;;;;;33.52;37.10;94231.38;5107342;27;20047;-64
2021/07/19 11:39:40;;;;;;;18.95;8.50;;;;;;;33.81;38.31;94242.06;5106800;27;20060;-64
2021/07/19 11:42:07;;;;;;;13.05;9.32;;;;;;;34.05;36.75;94240.38;5106003;27;20044;-64
2021/07/19 11:44:34;;;;;;;12.20;8.65;;;;;;;33.79;36.26;94236.31;5106920;27;20052;-64